"WATCHING THE WEATHER TO PROTECT LIFE AND PROPERTY"


Aviation
Satellite (InfraRed)


KFLL 191153Z 26003KT 10SM FEW040 FEW190 BKN260 18/17 A3006 RMK AO2 SLP178 T01780167 10200 20172 53001
KMCO 191153Z 00000KT 10SM SCT250 15/13 A3007 RMK AO2 SLP182 T01500133 10183 20144 53002
KMIA 191153Z 28004KT 10SM FEW044 SCT250 BKN300 19/16 A3007 RMK AO2 SLP183 T01890161 10211 20189 50003
KTPA 191153Z 00000KT 10SM FEW330 17/15 A3007 RMK AO2 SLP183 T01670150 10183 20156 53001
MDPP 191200Z 00000KT 9999 FEW018 21/20 Q1018
MDSD 191200Z 01004KT 9999 FEW018 17/15 Q1016
MKJS 191200Z 14006KT 9999 FEW022 23/18 Q1015
MTPP 191100Z 10003KT 8000 FEW018 20/17 Q1015 A2997
MUHA 191155Z 00000KT 9000 FEW030 13/12 Q1018
MYNN 191200Z 00000KT 9999 FEW040 SCT220 16/16 A3008
TAPA 191200Z 06009KT 9999 VCSH SCT019 SCT040 24/21 Q1015 NOSIG
TFFF 191230Z AUTO VRB03KT 9999 FEW016 SCT025 BKN031 24/22 Q1015 NOSIG
TFFR 191230Z AUTO VRB01KT CAVOK 24/21 Q1016 NOSIG
TIST 191153Z 10003KT 10SM CLR 22/17 A3002 RMK AO2 SLP164 T02170172 10217 20189 53013
TISX 191153Z 01004KT 10SM CLR 21/17 A3002 RMK AO2 SLP164 T02110172 10211 20161 53014
TJSJ 191156Z 00000KT 10SM FEW042 22/17 A3003 RMK AO2 SLP167 T02170172 10217 20200 53016
TKPK 191200Z 04007KT 9999 FEW022 25/20 Q1016
TNCA 191200Z 08010KT 9999 FEW018 26/22 Q1013 A2994 NOSIG
TNCB 191155Z 07010KT 040V100 9999 SCT020 26/22 Q1013
TNCC 191200Z 09012KT 9999 FEW018 26/21 Q1014 NOSIG
TNCE 191155Z AUTO 06008KT 020V090 //// // ///////// 25/19 Q1016 RE//
TNCM 191100Z 06003KT 9999 FEW020 22/19 Q1015 A2999 NOSIG
TQPF 191200Z 05003KT 9999 FEW020 24/16 Q1016
TUPJ 191200Z 05001KT 9999 FEW018 20/19 Q1016 RMK A3003